createdAt,value
2023-01-07T00:00:27.346Z,22.14
2023-01-07T00:01:31.752Z,22.1
2023-01-07T00:02:36.153Z,22.08
2023-01-07T00:03:40.628Z,22.12
2023-01-07T00:04:45.006Z,22.04
2023-01-07T00:05:49.252Z,22.06
2023-01-07T00:06:53.536Z,22.01
2023-01-07T00:07:57.791Z,22.04
2023-01-07T00:09:02.044Z,21.99
2023-01-07T00:10:06.327Z,22.03
2023-01-07T00:11:10.586Z,21.96
2023-01-07T00:12:14.881Z,22.02
2023-01-07T00:13:19.127Z,21.99
2023-01-07T00:14:23.385Z,22.02
2023-01-07T00:15:27.658Z,22
2023-01-07T00:16:31.901Z,21.94
2023-01-07T00:17:36.232Z,21.91
2023-01-07T00:18:40.737Z,21.93
2023-01-07T00:19:44.987Z,21.96
2023-01-07T00:20:49.238Z,21.96
2023-01-07T00:21:53.525Z,21.89
2023-01-07T00:22:57.788Z,21.95
2023-01-07T00:24:02.051Z,21.92
2023-01-07T00:25:06.294Z,21.89
2023-01-07T00:26:10.573Z,21.93
2023-01-07T00:27:14.864Z,21.94
2023-01-07T00:28:19.131Z,21.89
2023-01-07T00:29:23.403Z,21.88
2023-01-07T00:30:27.643Z,21.86
2023-01-07T00:31:31.924Z,21.88
2023-01-07T00:32:37.150Z,21.87
2023-01-07T00:33:41.391Z,21.81
2023-01-07T00:34:45.631Z,21.79
2023-01-07T00:35:49.931Z,21.79
2023-01-07T00:36:54.171Z,21.78
2023-01-07T00:37:58.403Z,21.82
2023-01-07T00:39:02.718Z,21.89
2023-01-07T00:40:06.989Z,21.84
2023-01-07T00:41:11.242Z,21.8
2023-01-07T00:42:15.473Z,21.86
2023-01-07T00:43:19.750Z,21.85
2023-01-07T00:44:24.011Z,21.89
2023-01-07T00:45:28.274Z,21.81
2023-01-07T00:46:32.641Z,21.77
2023-01-07T00:47:37.065Z,21.81
2023-01-07T00:48:41.298Z,21.82
2023-01-07T00:49:46.604Z,21.82
2023-01-07T00:50:50.846Z,21.79
2023-01-07T00:51:55.143Z,21.79
2023-01-07T00:52:59.445Z,21.76
2023-01-07T00:54:03.706Z,21.73
2023-01-07T00:55:07.984Z,21.77
2023-01-07T00:56:12.250Z,21.76
2023-01-07T00:57:16.551Z,21.77
2023-01-07T00:58:20.805Z,21.81
2023-01-07T00:59:25.071Z,21.82
2023-01-07T01:00:29.443Z,21.78
2023-01-07T01:01:33.997Z,21.75
2023-01-07T01:02:38.647Z,21.76
2023-01-07T01:03:43.107Z,21.74
2023-01-07T01:04:47.367Z,21.78
2023-01-07T01:05:51.692Z,21.73
2023-01-07T01:06:55.976Z,21.79
2023-01-07T01:08:00.227Z,21.78
2023-01-07T01:09:04.484Z,21.81
2023-01-07T01:10:08.740Z,21.78
2023-01-07T01:11:13.071Z,21.78
2023-01-07T01:12:17.344Z,21.74
2023-01-07T01:13:21.602Z,21.75
2023-01-07T01:14:25.856Z,21.72
2023-01-07T01:15:30.125Z,21.74
2023-01-07T01:16:34.506Z,21.76
2023-01-07T01:17:39.060Z,21.72
2023-01-07T01:18:43.320Z,21.68
2023-01-07T01:19:47.624Z,21.71
2023-01-07T01:20:51.905Z,21.71
2023-01-07T01:21:56.187Z,21.74
2023-01-07T01:23:00.428Z,21.71
2023-01-07T01:24:04.674Z,21.71
2023-01-07T01:25:08.959Z,21.69
2023-01-07T01:26:13.252Z,21.7
2023-01-07T01:27:17.518Z,21.68
2023-01-07T01:28:21.816Z,21.67
2023-01-07T01:29:26.112Z,21.72
2023-01-07T01:30:30.397Z,21.78
2023-01-07T01:31:34.797Z,21.76
2023-01-07T01:32:39.370Z,21.71
2023-01-07T01:33:43.673Z,21.69
2023-01-07T01:34:47.894Z,21.74
2023-01-07T01:35:52.157Z,21.69
2023-01-07T01:36:56.415Z,21.66
2023-01-07T01:38:00.808Z,21.65
2023-01-07T01:39:05.083Z,21.65
2023-01-07T01:40:10.377Z,21.64
2023-01-07T01:41:14.610Z,21.65
2023-01-07T01:42:18.929Z,21.7
2023-01-07T01:43:23.178Z,21.69
2023-01-07T01:44:27.434Z,21.72
2023-01-07T01:45:31.761Z,21.72
2023-01-07T01:46:36.143Z,21.71
2023-01-07T01:47:40.613Z,21.7
2023-01-07T01:48:44.856Z,21.64
2023-01-07T01:49:49.100Z,21.65
2023-01-07T01:50:53.405Z,21.68
2023-01-07T01:51:57.718Z,21.65
2023-01-07T01:53:02.040Z,21.7
2023-01-07T01:54:06.400Z,21.72
2023-01-07T01:55:11.679Z,21.67
2023-01-07T01:56:15.951Z,21.61
2023-01-07T01:57:20.215Z,21.67
2023-01-07T01:58:24.548Z,21.66
2023-01-07T01:59:28.824Z,21.64
2023-01-07T02:00:33.087Z,21.66
2023-01-07T02:01:37.651Z,21.64
2023-01-07T02:02:42.679Z,21.68
2023-01-07T02:03:47.155Z,21.66
2023-01-07T02:04:51.421Z,21.66
2023-01-07T02:05:55.663Z,21.66
2023-01-07T02:06:59.922Z,21.64
2023-01-07T02:08:04.148Z,21.62
2023-01-07T02:09:08.413Z,21.6
2023-01-07T02:10:12.645Z,21.63
2023-01-07T02:11:16.931Z,21.6
2023-01-07T02:12:21.161Z,21.59
2023-01-07T02:13:25.395Z,21.56
2023-01-07T02:14:29.657Z,21.54
2023-01-07T02:15:33.903Z,21.56
2023-01-07T02:16:38.245Z,21.54
2023-01-07T02:17:42.685Z,21.52
2023-01-07T02:18:46.945Z,21.54
2023-01-07T02:19:51.194Z,21.52
2023-01-07T02:20:55.461Z,21.51
2023-01-07T02:21:59.754Z,21.57
2023-01-07T02:23:04.013Z,21.58
2023-01-07T02:24:08.276Z,21.54
2023-01-07T02:25:15.561Z,21.56
2023-01-07T02:26:19.805Z,21.56
2023-01-07T02:27:24.045Z,21.53
2023-01-07T02:28:28.294Z,21.51
2023-01-07T02:29:32.578Z,21.5
2023-01-07T02:30:36.817Z,21.55
2023-01-07T02:31:41.118Z,21.53
2023-01-07T02:32:45.554Z,21.58
2023-01-07T02:33:49.808Z,21.54
2023-01-07T02:34:54.103Z,21.55
2023-01-07T02:35:58.341Z,21.51
2023-01-07T02:37:02.609Z,21.5
2023-01-07T02:38:06.911Z,21.52
2023-01-07T02:39:11.185Z,21.52
2023-01-07T02:40:15.534Z,21.5
2023-01-07T02:41:19.799Z,21.53
2023-01-07T02:42:24.106Z,21.53
2023-01-07T02:43:28.337Z,21.6
2023-01-07T02:44:32.588Z,21.62
2023-01-07T02:45:36.861Z,21.65
2023-01-07T02:46:41.210Z,21.69
2023-01-07T02:47:45.499Z,21.67
2023-01-07T02:48:49.787Z,21.66
2023-01-07T02:49:54.114Z,21.62
2023-01-07T02:50:58.369Z,21.6
2023-01-07T02:52:02.623Z,21.62
2023-01-07T02:53:06.933Z,21.56
2023-01-07T02:54:11.219Z,21.54
2023-01-07T02:55:15.464Z,21.53
2023-01-07T02:56:19.724Z,21.55
2023-01-07T02:57:24.026Z,21.55
2023-01-07T02:58:28.259Z,21.53
2023-01-07T02:59:32.518Z,21.5
2023-01-07T03:00:36.866Z,21.54
2023-01-07T03:01:41.302Z,21.52
2023-01-07T03:02:46.025Z,21.55
2023-01-07T03:03:50.313Z,21.54
2023-01-07T03:04:55.828Z,21.54
2023-01-07T03:06:00.107Z,21.53
2023-01-07T03:07:04.367Z,21.52
2023-01-07T03:08:08.608Z,21.5
2023-01-07T03:09:12.871Z,21.53
2023-01-07T03:10:17.156Z,21.56
2023-01-07T03:11:21.411Z,21.53
2023-01-07T03:12:25.692Z,21.55
2023-01-07T03:13:29.958Z,21.5
2023-01-07T03:14:34.215Z,21.54
2023-01-07T03:15:38.470Z,21.51
2023-01-07T03:16:42.760Z,21.52
2023-01-07T03:17:47.201Z,21.52
2023-01-07T03:18:51.443Z,21.52
2023-01-07T03:19:55.713Z,21.47
2023-01-07T03:21:00.013Z,21.45
2023-01-07T03:22:04.276Z,21.44
2023-01-07T03:23:08.527Z,21.46
2023-01-07T03:24:12.803Z,21.51
2023-01-07T03:25:17.051Z,21.5
2023-01-07T03:26:21.588Z,21.52
2023-01-07T03:27:25.843Z,21.47
2023-01-07T03:28:30.142Z,21.47
2023-01-07T03:29:34.738Z,21.47
2023-01-07T03:30:39.049Z,21.45
2023-01-07T03:31:43.367Z,21.43
2023-01-07T03:32:47.828Z,21.42
2023-01-07T03:33:52.079Z,21.43
2023-01-07T03:34:56.382Z,21.41
2023-01-07T03:36:00.667Z,21.44
2023-01-07T03:37:04.984Z,21.49
2023-01-07T03:38:09.290Z,21.47
2023-01-07T03:39:13.611Z,21.47
2023-01-07T03:40:17.854Z,21.47
2023-01-07T03:41:22.142Z,21.49
2023-01-07T03:42:26.447Z,21.44
2023-01-07T03:43:30.760Z,21.44
2023-01-07T03:44:35.067Z,21.45
2023-01-07T03:45:39.362Z,21.45
2023-01-07T03:46:43.653Z,21.44
2023-01-07T03:47:47.952Z,21.43
2023-01-07T03:48:52.203Z,21.47
2023-01-07T03:49:56.504Z,21.42
2023-01-07T03:51:00.823Z,21.4
2023-01-07T03:52:05.122Z,21.4
2023-01-07T03:53:09.426Z,21.37
2023-01-07T03:54:13.680Z,21.37
2023-01-07T03:55:17.993Z,21.36
2023-01-07T03:56:22.383Z,21.38
2023-01-07T03:57:26.632Z,21.4
2023-01-07T03:58:30.923Z,21.39
2023-01-07T03:59:35.194Z,21.43
2023-01-07T04:00:39.511Z,21.41
2023-01-07T04:01:43.980Z,21.41
2023-01-07T04:02:48.709Z,21.45
2023-01-07T04:03:53.002Z,21.44
2023-01-07T04:04:57.379Z,21.44
2023-01-07T04:06:01.723Z,21.42
2023-01-07T04:07:06.018Z,21.4
2023-01-07T04:08:10.287Z,21.4
2023-01-07T04:09:14.554Z,21.38
2023-01-07T04:10:18.836Z,21.38
2023-01-07T04:11:23.132Z,21.42
2023-01-07T04:12:27.399Z,21.41
2023-01-07T04:13:31.668Z,21.41
2023-01-07T04:14:35.915Z,21.41
2023-01-07T04:15:40.185Z,21.4
2023-01-07T04:16:44.516Z,21.38
2023-01-07T04:17:48.994Z,21.37
2023-01-07T04:18:53.231Z,21.37
2023-01-07T04:19:57.506Z,21.37
2023-01-07T04:21:01.806Z,21.41
2023-01-07T04:22:06.058Z,21.41
2023-01-07T04:23:10.363Z,21.4
2023-01-07T04:24:14.618Z,21.42
2023-01-07T04:25:18.857Z,21.4
2023-01-07T04:26:23.099Z,21.47
2023-01-07T04:27:27.400Z,21.45
2023-01-07T04:28:31.649Z,21.45
2023-01-07T04:29:35.886Z,21.47
2023-01-07T04:30:40.190Z,21.44
2023-01-07T04:31:44.614Z,21.41
2023-01-07T04:32:49.061Z,21.4
2023-01-07T04:33:53.315Z,21.39
2023-01-07T04:34:57.569Z,21.36
2023-01-07T04:36:01.826Z,21.4
2023-01-07T04:37:06.111Z,21.38
2023-01-07T04:38:10.406Z,21.36
2023-01-07T04:39:14.650Z,21.35
2023-01-07T04:40:18.990Z,21.38
2023-01-07T04:41:23.239Z,21.42
2023-01-07T04:42:27.539Z,21.43
2023-01-07T04:43:31.791Z,21.38
2023-01-07T04:44:36.063Z,21.37
2023-01-07T04:45:40.315Z,21.34
2023-01-07T04:46:44.582Z,21.36
2023-01-07T04:47:48.871Z,21.37
2023-01-07T04:48:54.183Z,21.37
2023-01-07T04:49:58.440Z,21.38
2023-01-07T04:51:02.671Z,21.4
2023-01-07T04:52:06.928Z,21.38
2023-01-07T04:53:11.157Z,21.39
2023-01-07T04:54:15.397Z,21.39
2023-01-07T04:55:19.687Z,21.34
2023-01-07T04:56:23.946Z,21.35
2023-01-07T04:57:28.229Z,21.4
2023-01-07T04:58:32.475Z,21.42
2023-01-07T04:59:36.730Z,21.38
2023-01-07T05:00:41.040Z,21.41
2023-01-07T05:01:45.404Z,21.39
2023-01-07T05:02:49.990Z,21.38
2023-01-07T05:03:54.286Z,21.38
2023-01-07T05:04:58.574Z,21.39
2023-01-07T05:06:02.871Z,21.4
2023-01-07T05:07:07.136Z,21.44
2023-01-07T05:08:14.412Z,21.53
2023-01-07T05:09:18.632Z,21.61
2023-01-07T05:10:22.897Z,21.73
2023-01-07T05:11:27.175Z,21.84
2023-01-07T05:12:31.432Z,21.96
2023-01-07T05:13:35.719Z,22.04
2023-01-07T05:14:40.020Z,22.14
2023-01-07T05:15:44.284Z,22.21
2023-01-07T05:16:48.673Z,22.31
2023-01-07T05:17:53.306Z,22.38
2023-01-07T05:18:57.537Z,22.45
2023-01-07T05:20:01.880Z,22.5
2023-01-07T05:21:06.165Z,22.51
2023-01-07T05:22:10.404Z,22.52
2023-01-07T05:23:14.664Z,22.54
2023-01-07T05:24:18.896Z,22.56
2023-01-07T05:25:23.164Z,22.57
2023-01-07T05:26:27.493Z,22.59
2023-01-07T05:27:31.757Z,22.59
2023-01-07T05:28:36.012Z,22.61
2023-01-07T05:29:40.319Z,22.64
2023-01-07T05:30:44.616Z,22.66
2023-01-07T05:31:48.984Z,22.68
2023-01-07T05:32:53.261Z,22.7
2023-01-07T05:33:57.492Z,22.72
2023-01-07T05:35:01.768Z,22.73
2023-01-07T05:36:09.106Z,22.76
2023-01-07T05:37:13.380Z,22.77
2023-01-07T05:38:17.626Z,22.78
2023-01-07T05:39:21.882Z,22.79
2023-01-07T05:40:26.149Z,22.8
2023-01-07T05:41:30.417Z,22.8
2023-01-07T05:42:34.686Z,22.81
2023-01-07T05:43:38.960Z,22.83
2023-01-07T05:44:43.224Z,22.84
2023-01-07T05:45:47.557Z,22.83
2023-01-07T05:46:52.026Z,22.84
2023-01-07T05:47:56.296Z,22.86
2023-01-07T05:49:00.561Z,22.87
2023-01-07T05:50:04.930Z,22.87
2023-01-07T05:51:09.235Z,22.89
2023-01-07T05:52:13.507Z,22.89
2023-01-07T05:53:17.746Z,22.9
2023-01-07T05:54:22.001Z,22.91
2023-01-07T05:55:26.310Z,22.93
2023-01-07T05:56:30.562Z,22.93
2023-01-07T05:57:34.830Z,22.96
2023-01-07T05:58:39.134Z,22.97
2023-01-07T05:59:43.384Z,22.97
2023-01-07T06:00:47.665Z,22.96
2023-01-07T06:01:52.122Z,22.99
2023-01-07T06:02:56.416Z,23.01
2023-01-07T06:04:00.668Z,23.03
2023-01-07T06:05:04.989Z,23.02
2023-01-07T06:06:09.475Z,23.01
2023-01-07T06:07:13.783Z,23
2023-01-07T06:08:18.038Z,22.99
2023-01-07T06:09:22.288Z,22.96
2023-01-07T06:10:26.571Z,22.95
2023-01-07T06:11:30.833Z,22.91
2023-01-07T06:12:35.123Z,22.89
2023-01-07T06:13:39.389Z,22.86
2023-01-07T06:14:43.665Z,22.85
2023-01-07T06:15:48.016Z,22.84
2023-01-07T06:16:52.406Z,22.81
2023-01-07T06:17:56.672Z,22.79
2023-01-07T06:19:00.941Z,22.76
2023-01-07T06:20:05.270Z,22.74
2023-01-07T06:21:09.542Z,22.71
2023-01-07T06:22:13.791Z,22.69
2023-01-07T06:23:18.052Z,22.67
2023-01-07T06:24:22.362Z,22.65
2023-01-07T06:25:26.648Z,22.62
2023-01-07T06:26:30.890Z,22.59
2023-01-07T06:27:35.150Z,22.57
2023-01-07T06:28:39.418Z,22.55
2023-01-07T06:29:43.654Z,22.53
2023-01-07T06:30:47.922Z,22.51
2023-01-07T06:31:52.307Z,22.5
2023-01-07T06:32:56.610Z,22.46
2023-01-07T06:34:00.846Z,22.45
2023-01-07T06:35:05.119Z,22.44
2023-01-07T06:36:09.385Z,22.43
2023-01-07T06:37:13.633Z,22.41
2023-01-07T06:38:17.892Z,22.39
2023-01-07T06:39:25.174Z,22.38
2023-01-07T06:40:29.420Z,22.38
2023-01-07T06:41:33.681Z,22.37
2023-01-07T06:42:37.942Z,22.36
2023-01-07T06:43:42.218Z,22.37
2023-01-07T06:44:46.872Z,22.38
2023-01-07T06:45:51.123Z,22.42
2023-01-07T06:46:55.373Z,22.48
2023-01-07T06:47:59.683Z,22.53
2023-01-07T06:49:03.936Z,22.61
2023-01-07T06:50:08.198Z,22.68
2023-01-07T06:51:12.472Z,22.75
2023-01-07T06:52:16.773Z,22.81
2023-01-07T06:53:21.054Z,22.86
2023-01-07T06:54:25.312Z,22.9
2023-01-07T06:55:29.586Z,22.96
2023-01-07T06:56:33.889Z,22.97
2023-01-07T06:57:38.200Z,22.98
2023-01-07T06:58:42.439Z,23
2023-01-07T06:59:46.666Z,22.98
2023-01-07T07:00:50.998Z,22.99
2023-01-07T07:01:55.448Z,22.97
2023-01-07T07:03:00.294Z,22.95
2023-01-07T07:04:04.805Z,22.93
2023-01-07T07:05:09.054Z,22.92
2023-01-07T07:06:13.305Z,22.91
2023-01-07T07:07:17.583Z,22.88
2023-01-07T07:08:21.841Z,22.86
2023-01-07T07:09:26.145Z,22.84
2023-01-07T07:10:30.660Z,22.83
2023-01-07T07:11:34.919Z,22.8
2023-01-07T07:12:39.206Z,22.78
2023-01-07T07:13:43.471Z,22.77
2023-01-07T07:14:47.769Z,22.74
2023-01-07T07:15:52.135Z,22.71
2023-01-07T07:16:56.587Z,22.7
2023-01-07T07:18:00.823Z,22.68
2023-01-07T07:19:05.067Z,22.66
2023-01-07T07:20:09.335Z,22.65
2023-01-07T07:21:13.603Z,22.61
2023-01-07T07:22:17.859Z,22.6
2023-01-07T07:23:22.141Z,22.57
2023-01-07T07:24:26.389Z,22.57
2023-01-07T07:25:30.682Z,22.55
2023-01-07T07:26:34.948Z,22.54
2023-01-07T07:27:39.235Z,22.52
2023-01-07T07:28:43.476Z,22.5
2023-01-07T07:29:47.730Z,22.48
2023-01-07T07:30:52.076Z,22.48
2023-01-07T07:31:56.458Z,22.47
2023-01-07T07:33:00.862Z,22.45
2023-01-07T07:34:05.117Z,22.44
2023-01-07T07:35:11.633Z,22.44
2023-01-07T07:36:15.894Z,22.43
2023-01-07T07:37:20.165Z,22.41
2023-01-07T07:38:24.456Z,22.39
2023-01-07T07:39:28.763Z,22.38
2023-01-07T07:40:33.035Z,22.37
2023-01-07T07:41:37.289Z,22.36
2023-01-07T07:43:09.291Z,22.36
2023-01-07T07:44:16.415Z,22.35
2023-01-07T07:45:20.659Z,22.35
2023-01-07T07:46:24.955Z,22.4
2023-01-07T07:47:29.471Z,22.43
2023-01-07T07:48:33.739Z,22.52
2023-01-07T07:49:38.096Z,22.66
2023-01-07T07:50:42.357Z,22.76
2023-01-07T07:51:46.653Z,22.8
2023-01-07T07:52:50.905Z,22.78
2023-01-07T07:53:55.164Z,22.77
2023-01-07T07:55:19.648Z,22.75
2023-01-07T07:56:30.190Z,22.75
2023-01-07T07:57:34.450Z,22.73
2023-01-07T07:58:38.685Z,22.73
2023-01-07T07:59:42.976Z,22.73
2023-01-07T08:00:47.273Z,22.73
2023-01-07T08:01:51.540Z,22.73
2023-01-07T08:02:56.080Z,22.71
2023-01-07T08:04:02.735Z,22.69
2023-01-07T08:05:07.033Z,22.68
2023-01-07T08:06:11.278Z,22.66
2023-01-07T08:07:31.999Z,22.65
2023-01-07T08:08:40.203Z,22.67
2023-01-07T08:09:44.496Z,22.67
2023-01-07T08:10:48.753Z,22.63
2023-01-07T08:11:53.028Z,22.61
2023-01-07T08:12:57.310Z,22.58
2023-01-07T08:14:01.580Z,22.55
2023-01-07T08:15:09.039Z,22.52
2023-01-07T08:16:13.329Z,22.5
2023-01-07T08:17:17.836Z,22.46
2023-01-07T08:18:22.102Z,22.45
2023-01-07T08:19:26.398Z,22.42
2023-01-07T08:20:30.644Z,22.39
2023-01-07T08:21:34.924Z,22.36
2023-01-07T08:22:39.507Z,22.34
2023-01-07T08:23:43.810Z,22.31
2023-01-07T08:24:48.071Z,22.29
2023-01-07T08:25:52.316Z,22.26
2023-01-07T08:26:56.575Z,22.24
2023-01-07T08:28:00.828Z,22.23
2023-01-07T08:29:05.133Z,22.21
2023-01-07T08:30:09.394Z,22.2
2023-01-07T08:31:13.684Z,22.18
2023-01-07T08:32:18.053Z,22.16
2023-01-07T08:33:22.309Z,22.15
2023-01-07T08:34:26.597Z,22.14
2023-01-07T08:35:30.897Z,22.13
2023-01-07T08:36:35.144Z,22.12
2023-01-07T08:37:39.430Z,22.11
2023-01-07T08:38:43.706Z,22.1
2023-01-07T08:39:47.929Z,22.1
2023-01-07T08:40:52.192Z,22.07
2023-01-07T08:41:56.449Z,22.07
2023-01-07T08:43:00.703Z,22.06
2023-01-07T08:44:04.952Z,22.05
2023-01-07T08:45:09.186Z,22.01
2023-01-07T08:46:13.614Z,22.03
2023-01-07T08:47:18.130Z,22
2023-01-07T08:48:22.406Z,22.08
2023-01-07T08:49:26.630Z,22.07
2023-01-07T08:50:30.907Z,22.07
2023-01-07T08:51:35.260Z,22.1
2023-01-07T08:52:39.519Z,22.1
2023-01-07T08:53:43.774Z,22.1
2023-01-07T08:54:48.268Z,22.07
2023-01-07T08:55:52.531Z,22.07
2023-01-07T08:56:56.866Z,22.05
2023-01-07T08:58:01.156Z,22.04
2023-01-07T08:59:05.450Z,22.01
2023-01-07T09:00:09.702Z,22.02
2023-01-07T09:01:18.355Z,22.01
2023-01-07T09:02:23.158Z,22.02
2023-01-07T09:03:27.600Z,22
2023-01-07T09:04:31.867Z,22
2023-01-07T09:05:36.111Z,21.99
2023-01-07T09:06:40.387Z,21.98
2023-01-07T09:07:44.630Z,21.98
2023-01-07T09:08:48.961Z,21.99
2023-01-07T09:09:53.209Z,21.99
2023-01-07T09:10:59.967Z,21.98
2023-01-07T09:12:04.230Z,21.98
2023-01-07T09:13:08.483Z,21.98
2023-01-07T09:14:12.728Z,21.97
2023-01-07T09:15:17.009Z,21.99
2023-01-07T09:16:21.361Z,22
2023-01-07T09:17:25.777Z,22.05
2023-01-07T09:18:30.083Z,22.04
2023-01-07T09:19:34.409Z,22.04
2023-01-07T09:20:38.675Z,22.05
2023-01-07T09:21:42.917Z,22.06
2023-01-07T09:22:47.166Z,22.07
2023-01-07T09:23:51.412Z,22.09
2023-01-07T09:24:55.658Z,22.08
2023-01-07T09:25:59.956Z,22.07
2023-01-07T09:27:07.222Z,22.08
2023-01-07T09:28:11.503Z,22.06
2023-01-07T09:29:15.793Z,22.04
2023-01-07T09:30:20.040Z,22.06
2023-01-07T09:31:25.405Z,22.01
2023-01-07T09:32:30.539Z,21.99
2023-01-07T09:33:34.775Z,21.97
2023-01-07T09:34:39.062Z,21.93
2023-01-07T09:35:43.328Z,21.93
2023-01-07T09:36:47.644Z,21.9
2023-01-07T09:37:51.890Z,21.91
2023-01-07T09:38:56.143Z,21.89
2023-01-07T09:40:00.387Z,21.89
2023-01-07T09:41:04.691Z,21.87
2023-01-07T09:42:08.972Z,21.87
2023-01-07T09:43:13.201Z,21.9
2023-01-07T09:44:17.478Z,21.86
2023-01-07T09:45:21.758Z,21.85
2023-01-07T09:46:26.013Z,21.81
2023-01-07T09:47:30.294Z,21.88
2023-01-07T09:48:34.561Z,21.85
2023-01-07T09:49:38.836Z,21.88
2023-01-07T09:50:43.117Z,21.87
2023-01-07T09:51:47.423Z,21.84
2023-01-07T09:52:51.681Z,21.81
2023-01-07T09:53:55.956Z,21.79
2023-01-07T09:55:00.209Z,21.77
2023-01-07T09:56:10.203Z,21.76
2023-01-07T09:57:16.770Z,21.73
2023-01-07T09:58:21.039Z,21.72
2023-01-07T09:59:25.319Z,21.71
2023-01-07T10:00:29.642Z,21.7
2023-01-07T10:01:33.979Z,21.7
2023-01-07T10:02:40.826Z,21.69
2023-01-07T10:03:45.205Z,21.68
2023-01-07T10:04:49.567Z,21.67
2023-01-07T10:05:53.832Z,21.66
2023-01-07T10:06:58.369Z,21.67
2023-01-07T10:08:29.508Z,21.67
2023-01-07T10:09:36.291Z,21.67
2023-01-07T10:10:40.534Z,21.66
2023-01-07T10:11:44.782Z,21.67
2023-01-07T10:12:49.068Z,21.66
2023-01-07T10:13:53.394Z,21.65
2023-01-07T10:14:57.660Z,21.59
2023-01-07T10:16:02.558Z,21.65
2023-01-07T10:17:07.115Z,21.71
2023-01-07T10:18:11.395Z,21.69
2023-01-07T10:19:15.847Z,21.66
2023-01-07T10:20:20.126Z,21.66
2023-01-07T10:21:24.557Z,21.64
2023-01-07T10:22:28.824Z,21.65
2023-01-07T10:23:33.099Z,21.65
2023-01-07T10:24:37.383Z,21.68
2023-01-07T10:25:41.630Z,21.66
2023-01-07T10:26:45.908Z,21.65
2023-01-07T10:27:50.163Z,21.62
2023-01-07T10:28:54.396Z,21.59
2023-01-07T10:29:58.659Z,21.57
2023-01-07T10:31:02.926Z,21.56
2023-01-07T10:32:07.208Z,21.57
2023-01-07T10:33:11.473Z,21.55
2023-01-07T10:34:15.751Z,21.55
2023-01-07T10:35:20.041Z,21.57
2023-01-07T10:36:24.381Z,21.58
2023-01-07T10:37:28.630Z,21.58
2023-01-07T10:38:32.856Z,21.59
2023-01-07T10:39:37.111Z,21.63
2023-01-07T10:40:41.347Z,21.64
2023-01-07T10:41:45.605Z,21.65
2023-01-07T10:42:49.891Z,21.66
2023-01-07T10:43:54.131Z,21.73
2023-01-07T10:44:58.374Z,21.76
2023-01-07T10:46:02.728Z,21.75
2023-01-07T10:47:07.370Z,21.77
2023-01-07T10:48:11.649Z,21.78
2023-01-07T10:49:15.888Z,21.79
2023-01-07T10:50:20.168Z,21.8
2023-01-07T10:51:24.482Z,21.84
2023-01-07T10:52:28.708Z,21.87
2023-01-07T10:53:33.011Z,21.89
2023-01-07T10:54:37.252Z,21.88
2023-01-07T10:55:41.521Z,21.89
2023-01-07T10:56:45.811Z,21.91
2023-01-07T10:57:50.043Z,21.92
2023-01-07T10:58:54.310Z,21.92
2023-01-07T10:59:58.571Z,21.92
2023-01-07T11:01:02.920Z,21.92
2023-01-07T11:02:07.711Z,21.92
2023-01-07T11:03:12.664Z,21.88
2023-01-07T11:04:17.070Z,21.88
2023-01-07T11:05:21.353Z,21.87
2023-01-07T11:06:25.669Z,21.87
2023-01-07T11:07:29.951Z,21.87
2023-01-07T11:08:34.191Z,21.88
2023-01-07T11:09:38.441Z,21.88
2023-01-07T11:10:42.659Z,21.89
2023-01-07T11:11:46.940Z,21.9
2023-01-07T11:12:51.218Z,21.85
2023-01-07T11:13:55.463Z,21.84
2023-01-07T11:14:59.739Z,21.85
2023-01-07T11:16:04.016Z,21.84
2023-01-07T11:17:08.275Z,21.84
2023-01-07T11:18:12.618Z,21.81
2023-01-07T11:19:17.205Z,21.83
2023-01-07T11:20:24.520Z,21.85
2023-01-07T11:21:42.378Z,21.86
2023-01-07T11:22:48.371Z,21.84
2023-01-07T11:23:52.603Z,21.84
2023-01-07T11:24:56.825Z,21.84
2023-01-07T11:26:01.201Z,21.8
2023-01-07T11:27:05.494Z,21.79
2023-01-07T11:28:09.756Z,21.79
2023-01-07T11:29:14.023Z,21.78
2023-01-07T11:30:18.293Z,21.79
2023-01-07T11:31:22.665Z,21.78
2023-01-07T11:32:27.054Z,21.76
2023-01-07T11:34:00.904Z,21.76
2023-01-07T11:35:08.171Z,21.72
2023-01-07T11:36:12.454Z,21.71
2023-01-07T11:37:16.724Z,21.72
2023-01-07T11:38:20.997Z,21.72
2023-01-07T11:39:25.300Z,21.71
2023-01-07T11:40:29.557Z,21.73
2023-01-07T11:41:36.234Z,21.73
2023-01-07T11:42:40.576Z,21.73
2023-01-07T11:43:44.805Z,21.73
2023-01-07T11:44:49.046Z,21.71
2023-01-07T11:46:18.910Z,21.7
2023-01-07T11:47:29.292Z,21.68
2023-01-07T11:48:33.843Z,21.69
2023-01-07T11:49:39.103Z,21.7
2023-01-07T11:50:43.388Z,21.69
2023-01-07T11:51:49.520Z,21.67
2023-01-07T11:52:53.942Z,21.7
2023-01-07T11:53:58.210Z,21.66
2023-01-07T11:55:02.519Z,21.66
2023-01-07T11:56:06.800Z,21.67
2023-01-07T11:57:11.057Z,21.67
2023-01-07T11:58:29.226Z,21.67
2023-01-07T11:59:34.804Z,21.63
2023-01-07T12:00:39.038Z,21.63
2023-01-07T12:01:43.296Z,21.59
2023-01-07T12:02:47.673Z,21.56
2023-01-07T12:03:52.167Z,21.57
2023-01-07T12:04:56.702Z,21.57
2023-01-07T12:06:01.097Z,21.58
2023-01-07T12:07:05.407Z,21.59
2023-01-07T12:08:09.668Z,21.6
2023-01-07T12:09:13.912Z,21.63
2023-01-07T12:10:18.207Z,21.66
2023-01-07T12:11:22.437Z,21.69
2023-01-07T12:12:26.752Z,21.7
2023-01-07T12:13:31.015Z,21.72
2023-01-07T12:14:35.326Z,21.74
2023-01-07T12:15:39.569Z,21.76
2023-01-07T12:16:43.860Z,21.76
2023-01-07T12:17:48.462Z,21.78
2023-01-07T12:18:52.716Z,21.83
2023-01-07T12:19:56.940Z,21.86
2023-01-07T12:21:01.205Z,21.88
2023-01-07T12:22:05.496Z,21.92
2023-01-07T12:23:09.774Z,21.92
2023-01-07T12:24:14.087Z,21.92
2023-01-07T12:25:18.620Z,21.92
2023-01-07T12:26:22.903Z,21.92
2023-01-07T12:27:27.154Z,21.92
2023-01-07T12:28:31.438Z,21.93
2023-01-07T12:29:35.693Z,21.92
2023-01-07T12:30:41.472Z,21.92
2023-01-07T12:31:47.630Z,21.92
2023-01-07T12:32:52.156Z,21.92
2023-01-07T12:33:56.527Z,21.91
2023-01-07T12:35:14.160Z,21.91
2023-01-07T12:36:19.213Z,21.91
2023-01-07T12:37:23.507Z,21.91
2023-01-07T12:38:27.802Z,21.92
2023-01-07T12:39:32.045Z,21.94
2023-01-07T12:40:36.375Z,21.94
2023-01-07T12:41:40.631Z,21.95
2023-01-07T12:42:45.000Z,21.95
2023-01-07T12:43:49.241Z,21.97
2023-01-07T12:44:53.527Z,21.97
2023-01-07T12:45:57.858Z,21.97
2023-01-07T12:47:30.273Z,21.95
2023-01-07T12:48:38.520Z,21.94
2023-01-07T12:49:42.830Z,21.93
2023-01-07T12:50:47.133Z,21.93
2023-01-07T12:51:51.399Z,21.92
2023-01-07T12:52:58.016Z,21.92
2023-01-07T12:54:02.298Z,21.91
2023-01-07T12:55:06.545Z,21.91
2023-01-07T12:56:10.814Z,21.91
2023-01-07T12:57:15.076Z,21.91
2023-01-07T12:58:19.350Z,21.92
2023-01-07T12:59:45.539Z,21.91
2023-01-07T13:00:52.042Z,21.9
2023-01-07T13:01:56.607Z,21.88
2023-01-07T13:03:01.229Z,21.85
2023-01-07T13:04:05.573Z,21.87
2023-01-07T13:05:09.893Z,21.85
2023-01-07T13:06:14.216Z,21.87
2023-01-07T13:07:18.490Z,21.88
2023-01-07T13:08:22.733Z,21.9
2023-01-07T13:09:27.000Z,21.91
2023-01-07T13:10:31.310Z,21.92
2023-01-07T13:11:35.591Z,21.91
2023-01-07T13:12:41.269Z,21.88
2023-01-07T13:13:47.879Z,21.88
2023-01-07T13:14:52.390Z,21.86
2023-01-07T13:15:56.695Z,21.87
2023-01-07T13:17:01.343Z,21.86
2023-01-07T13:18:05.596Z,21.84
2023-01-07T13:19:09.820Z,21.85
2023-01-07T13:20:14.068Z,21.85
2023-01-07T13:21:18.407Z,21.89
2023-01-07T13:22:22.697Z,21.9
2023-01-07T13:23:26.987Z,21.89
2023-01-07T13:24:55.392Z,21.88
2023-01-07T13:26:01.939Z,21.89
2023-01-07T13:27:06.189Z,21.9
2023-01-07T13:28:10.483Z,21.9
2023-01-07T13:29:14.812Z,21.93
2023-01-07T13:30:19.053Z,21.94
2023-01-07T13:31:23.414Z,21.97
2023-01-07T13:32:28.193Z,22
2023-01-07T13:33:32.443Z,21.99
2023-01-07T13:34:36.696Z,21.96
2023-01-07T13:35:40.938Z,21.92
2023-01-07T13:36:45.210Z,21.88
2023-01-07T13:37:49.497Z,21.84
2023-01-07T13:38:53.731Z,21.82
2023-01-07T13:39:57.971Z,21.8
2023-01-07T13:41:02.217Z,21.78
2023-01-07T13:42:07.520Z,21.77
2023-01-07T13:43:11.798Z,21.76
2023-01-07T13:44:16.074Z,21.76
2023-01-07T13:45:20.315Z,21.73
2023-01-07T13:46:24.652Z,21.71
2023-01-07T13:47:29.099Z,21.69
2023-01-07T13:48:33.346Z,21.69
2023-01-07T13:49:37.873Z,21.69
2023-01-07T13:50:58.842Z,21.67
2023-01-07T13:52:03.084Z,21.7
2023-01-07T13:53:07.511Z,21.73
2023-01-07T13:54:12.101Z,21.74
2023-01-07T13:55:16.449Z,21.72
2023-01-07T13:56:20.747Z,21.76
2023-01-07T13:57:25.029Z,21.79